Time;durP1;ratioP1;P1;durP2;ratioP2;P2;SDS_P1;SDS_P2;PMS_P1;PMS_P2;Temp;Humidity;BMP_temperature;BMP_pressure;BME280_temperature;BME280_humidity;BME280_pressure;Samples;Min_cycle;Max_cycle;Signal;HPM_P1;HPM_P2
2022/07/05 00:02:23;;;;;;;5.10;2.30;;;17.70;99.90;;;;;;5033437;28;20206;-35
2022/07/05 00:04:50;;;;;;;2.43;2.20;;;17.70;99.90;;;;;;5032566;28;20236;-35
2022/07/05 00:07:20;;;;;;;4.50;3.07;;;17.60;99.90;;;;;;5031528;28;20463;-35
2022/07/05 00:09:52;;;;;;;3.93;2.37;;;17.50;99.90;;;;;;5031113;28;20453;-35
2022/07/05 00:12:19;;;;;;;2.40;2.20;;;17.40;99.90;;;;;;5032056;28;20981;-36
2022/07/05 00:14:45;;;;;;;2.77;2.40;;;17.40;99.90;;;;;;5032239;28;20425;-35
2022/07/05 00:17:12;;;;;;;2.87;2.23;;;17.40;99.90;;;;;;5031578;28;20417;-36
2022/07/05 00:19:39;;;;;;;2.93;2.73;;;17.30;99.90;;;;;;5032247;28;21097;-35
2022/07/05 00:22:04;;;;;;;3.30;2.10;;;17.30;99.90;;;;;;5039040;28;20437;-35
2022/07/05 00:24:30;;;;;;;3.77;2.30;;;17.30;99.90;;;;;;5031840;28;20516;-35
2022/07/05 00:26:56;;;;;;;2.77;2.40;;;17.30;99.90;;;;;;5037170;28;20573;-35
2022/07/05 00:29:22;;;;;;;3.97;2.70;;;17.30;99.90;;;;;;5051686;28;20206;-35
2022/07/05 00:31:48;;;;;;;4.63;2.77;;;17.30;99.90;;;;;;5051803;28;20190;-35
2022/07/05 00:34:14;;;;;;;2.50;2.30;;;17.20;99.90;;;;;;5050541;28;20189;-35
2022/07/05 00:36:40;;;;;;;3.93;2.37;;;17.30;99.90;;;;;;5051286;28;20470;-35
2022/07/05 00:39:06;;;;;;;3.47;2.80;;;17.20;99.90;;;;;;5051389;28;20186;-35
2022/07/05 00:41:32;;;;;;;2.50;2.30;;;17.20;99.90;;;;;;5051789;28;20767;-36
2022/07/05 00:44:04;;;;;;;3.90;2.93;;;17.20;99.90;;;;;;5051425;28;20484;-35
2022/07/05 00:46:30;;;;;;;4.37;2.50;;;17.20;99.90;;;;;;5051536;28;20511;-35
2022/07/05 00:48:58;;;;;;;2.97;2.57;;;17.10;99.90;;;;;;5050754;28;20466;-35
2022/07/05 00:51:25;;;;;;;4.57;2.23;;;17.10;99.90;;;;;;5051527;28;20420;-36
2022/07/05 00:53:51;;;;;;;9.87;2.57;;;16.90;99.90;;;;;;5051212;28;20786;-35
2022/07/05 00:56:19;;;;;;;2.20;2.00;;;16.80;99.90;;;;;;5051334;28;20431;-35
2022/07/05 00:58:45;;;;;;;2.73;2.53;;;16.70;99.90;;;;;;5050809;28;20578;-35
2022/07/05 01:01:11;;;;;;;2.67;2.43;;;16.70;99.90;;;;;;5042922;28;20429;-35
2022/07/05 01:03:38;;;;;;;2.57;2.37;;;16.60;99.90;;;;;;5031200;28;20421;-35
2022/07/05 01:06:09;;;;;;;4.53;2.70;;;16.60;99.90;;;;;;5030924;28;20449;-35
2022/07/05 01:08:38;;;;;;;2.53;2.33;;;16.50;99.90;;;;;;5030635;28;20476;-35
2022/07/05 01:11:04;;;;;;;2.90;2.50;;;16.50;99.90;;;;;;5030967;28;20426;-35
2022/07/05 01:13:30;;;;;;;2.90;2.60;;;16.50;99.90;;;;;;5031171;28;20417;-36
2022/07/05 01:15:57;;;;;;;2.50;2.30;;;16.40;99.90;;;;;;5031005;28;20426;-35
2022/07/05 01:18:23;;;;;;;3.10;2.70;;;16.30;99.90;;;;;;5030419;28;21078;-35
2022/07/05 01:20:50;;;;;;;4.43;2.87;;;16.30;99.90;;;;;;5030605;28;20457;-35
2022/07/05 01:23:19;;;;;;;3.40;2.60;;;16.30;99.90;;;;;;5037029;28;20425;-35
2022/07/05 01:25:46;;;;;;;2.90;2.43;;;16.20;99.90;;;;;;5030830;28;20425;-35
2022/07/05 01:28:13;;;;;;;4.10;2.17;;;16.20;99.90;;;;;;5047503;28;20480;-35
2022/07/05 01:30:39;;;;;;;3.17;2.67;;;16.20;99.90;;;;;;5050654;28;20424;-35
2022/07/05 01:33:06;;;;;;;2.47;2.27;;;16.20;99.90;;;;;;5050420;28;20420;-35
2022/07/05 01:35:33;;;;;;;3.43;2.63;;;16.10;99.90;;;;;;5049435;28;20983;-35
2022/07/05 01:37:58;;;;;;;2.50;2.33;;;16.10;99.90;;;;;;5049828;28;20933;-35
2022/07/05 01:40:24;;;;;;;3.90;2.57;;;16.10;99.90;;;;;;5050608;28;20428;-36
2022/07/05 01:42:50;;;;;;;2.40;2.20;;;16.10;99.90;;;;;;5050361;28;20196;-35
2022/07/05 01:45:39;;;;;;;4.33;2.77;;;16.10;99.90;;;;;;5050461;28;20506;-35
2022/07/05 01:48:06;;;;;;;2.70;2.00;;;16.10;99.90;;;;;;5049422;28;20451;-35
2022/07/05 01:50:37;;;;;;;2.63;2.43;;;16.10;99.90;;;;;;5050300;28;21053;-35
2022/07/05 01:53:04;;;;;;;2.67;2.17;;;16.10;99.90;;;;;;5050243;28;20455;-35
2022/07/05 01:55:30;;;;;;;2.30;2.10;;;16.20;99.90;;;;;;5050199;28;20466;-35
2022/07/05 01:57:57;;;;;;;3.17;2.70;;;16.20;99.90;;;;;;5049481;28;20428;-35
2022/07/05 02:00:22;;;;;;;3.07;2.83;;;16.30;99.90;;;;;;5047925;28;20591;-35
2022/07/05 02:02:49;;;;;;;2.30;2.10;;;16.30;99.90;;;;;;5030428;28;20429;-35
2022/07/05 02:05:15;;;;;;;6.10;2.50;;;16.30;99.90;;;;;;5030141;28;20590;-35
2022/07/05 02:07:47;;;;;;;3.03;2.73;;;16.30;99.90;;;;;;5029527;28;20540;-35
2022/07/05 02:10:13;;;;;;;2.60;2.00;;;16.30;99.90;;;;;;5030034;28;20315;-35
2022/07/05 02:12:39;;;;;;;2.43;2.23;;;16.30;99.90;;;;;;5030061;28;21164;-35
2022/07/05 02:15:05;;;;;;;3.23;2.60;;;16.40;99.90;;;;;;5029811;28;20190;-35
2022/07/05 02:17:31;;;;;;;3.10;2.30;;;16.30;99.90;;;;;;5028369;28;20232;-35
2022/07/05 02:19:57;;;;;;;2.73;2.53;;;16.20;99.90;;;;;;5029882;28;20484;-35
2022/07/05 02:22:23;;;;;;;2.30;2.03;;;16.20;99.90;;;;;;5035745;28;20190;-35
2022/07/05 02:24:49;;;;;;;3.33;2.20;;;16.20;99.90;;;;;;5029857;28;20444;-35
2022/07/05 02:27:15;;;;;;;2.50;2.30;;;16.30;99.90;;;;;;5038711;28;20447;-35
2022/07/05 02:29:41;;;;;;;4.20;3.20;;;16.40;99.90;;;;;;5049667;28;20225;-35
2022/07/05 02:32:07;;;;;;;2.60;2.40;;;16.30;99.90;;;;;;5049281;28;20443;-35
2022/07/05 02:34:33;;;;;;;2.50;2.20;;;16.10;99.90;;;;;;5048897;28;20271;-36
2022/07/05 02:36:58;;;;;;;2.80;2.60;;;16.00;99.90;;;;;;5049075;28;20220;-35
2022/07/05 02:39:24;;;;;;;2.80;2.60;;;16.00;99.90;;;;;;5049740;28;20432;-35
2022/07/05 02:41:50;;;;;;;2.83;2.40;;;15.80;99.90;;;;;;5049368;28;20248;-35
2022/07/05 02:44:15;;;;;;;2.70;2.50;;;15.80;99.90;;;;;;5049667;28;20661;-35
2022/07/05 02:46:41;;;;;;;2.73;2.53;;;15.80;99.90;;;;;;5049003;28;20193;-35
2022/07/05 02:49:07;;;;;;;2.90;2.57;;;15.70;99.90;;;;;;5049506;28;20276;-35
2022/07/05 02:51:32;;;;;;;3.33;2.50;;;15.80;99.90;;;;;;5049580;28;20190;-35
2022/07/05 02:53:58;;;;;;;4.20;2.50;;;15.80;99.90;;;;;;5048351;28;20182;-36
2022/07/05 02:56:24;;;;;;;3.27;2.50;;;15.80;99.90;;;;;;5049282;28;20182;-35
2022/07/05 02:58:50;;;;;;;5.80;2.73;;;15.90;99.90;;;;;;5048889;28;20189;-35
2022/07/05 03:01:15;;;;;;;2.47;2.27;;;16.00;99.90;;;;;;5040543;28;20189;-35
2022/07/05 03:03:41;;;;;;;3.00;2.50;;;16.00;99.90;;;;;;5029731;28;20277;-35
2022/07/05 03:06:07;;;;;;;2.37;2.17;;;16.00;99.90;;;;;;5029587;28;20666;-36
2022/07/05 03:08:32;;;;;;;2.70;2.50;;;15.90;99.90;;;;;;5028743;28;20260;-35
2022/07/05 03:10:58;;;;;;;2.20;2.07;;;15.90;99.90;;;;;;5029579;28;20216;-35
2022/07/05 03:13:24;;;;;;;2.47;2.27;;;15.90;99.90;;;;;;5029386;28;20210;-35
2022/07/05 03:15:49;;;;;;;2.80;2.30;;;15.90;99.90;;;;;;5029585;28;20190;-35
2022/07/05 03:18:15;;;;;;;2.50;2.30;;;15.70;99.90;;;;;;5027552;28;20190;-35
2022/07/05 03:20:41;;;;;;;2.53;2.20;;;15.70;99.90;;;;;;5029493;28;21059;-35
2022/07/05 03:23:06;;;;;;;3.53;2.70;;;15.60;99.90;;;;;;5034068;28;20183;-35
2022/07/05 03:25:32;;;;;;;5.00;2.63;;;15.60;99.90;;;;;;5029422;28;20198;-35
2022/07/05 03:27:58;;;;;;;5.40;2.53;;;15.60;99.90;;;;;;5043756;28;20185;-35
2022/07/05 03:30:24;;;;;;;4.70;2.47;;;15.60;99.90;;;;;;5049284;28;20204;-35
2022/07/05 03:32:50;;;;;;;2.63;2.43;;;15.60;99.90;;;;;;5049143;28;20186;-35
2022/07/05 03:35:16;;;;;;;3.67;2.60;;;15.60;99.90;;;;;;5048316;28;20189;-35
2022/07/05 03:37:41;;;;;;;2.67;2.47;;;15.70;99.90;;;;;;5048567;28;20429;-35
2022/07/05 03:40:08;;;;;;;3.80;3.03;;;15.70;99.90;;;;;;5049068;28;20472;-35
2022/07/05 03:42:35;;;;;;;2.70;2.50;;;15.70;99.90;;;;;;5049023;28;20197;-35
2022/07/05 03:45:01;;;;;;;2.90;2.60;;;15.70;99.90;;;;;;5051780;28;20428;-35
2022/07/05 03:47:27;;;;;;;3.40;3.00;;;15.80;99.90;;;;;;5052060;28;20447;-35
2022/07/05 03:49:54;;;;;;;3.73;2.67;;;15.80;99.90;;;;;;5052469;28;20496;-35
2022/07/05 03:52:20;;;;;;;3.33;2.40;;;15.90;99.90;;;;;;5052594;28;20870;-35
2022/07/05 03:54:45;;;;;;;4.20;2.63;;;15.80;99.90;;;;;;5052441;28;20443;-35
2022/07/05 03:57:12;;;;;;;2.83;2.63;;;15.70;99.90;;;;;;5051862;28;20686;-35
2022/07/05 03:59:39;;;;;;;2.53;2.33;;;15.70;99.90;;;;;;5051371;28;20193;-35
2022/07/05 04:02:04;;;;;;;3.70;2.37;;;15.70;99.90;;;;;;5037051;28;20519;-35
2022/07/05 04:04:30;;;;;;;2.93;2.43;;;15.60;99.90;;;;;;5032583;28;20936;-35
2022/07/05 04:06:56;;;;;;;3.07;2.40;;;15.60;99.90;;;;;;5031566;28;20198;-35
2022/07/05 04:09:21;;;;;;;3.47;3.10;;;15.60;99.90;;;;;;5032255;28;20214;-35
2022/07/05 04:11:47;;;;;;;2.60;2.40;;;15.50;99.90;;;;;;5032035;28;20196;-35
2022/07/05 04:14:13;;;;;;;3.00;2.47;;;15.40;99.90;;;;;;5032259;28;20195;-35
2022/07/05 04:16:38;;;;;;;3.63;2.40;;;15.30;99.90;;;;;;5031545;28;20178;-35
2022/07/05 04:19:04;;;;;;;4.23;2.50;;;15.30;99.90;;;;;;5032103;28;20281;-35
2022/07/05 04:21:30;;;;;;;3.23;2.93;;;15.30;99.90;;;;;;5039052;28;20548;-35
2022/07/05 04:23:56;;;;;;;3.00;2.70;;;15.30;99.90;;;;;;5031978;28;20582;-35
2022/07/05 04:26:21;;;;;;;3.17;2.87;;;15.40;99.90;;;;;;5034164;28;20194;-35
2022/07/05 04:28:47;;;;;;;3.47;2.80;;;15.40;99.90;;;;;;5051208;28;20692;-35
2022/07/05 04:31:12;;;;;;;2.90;2.70;;;15.40;99.90;;;;;;5051859;28;20197;-35
2022/07/05 04:33:39;;;;;;;2.80;2.60;;;15.60;99.90;;;;;;5050942;28;20190;-35
2022/07/05 04:36:05;;;;;;;3.47;3.17;;;15.70;99.90;;;;;;5051778;28;20197;-35
2022/07/05 04:38:31;;;;;;;3.63;2.70;;;15.70;99.90;;;;;;5050851;28;20436;-35
2022/07/05 04:40:57;;;;;;;3.43;3.13;;;15.60;99.90;;;;;;5051514;28;20435;-36
2022/07/05 04:43:22;;;;;;;2.90;2.63;;;15.50;99.90;;;;;;5039189;28;20186;-35
2022/07/05 04:45:48;;;;;;;3.10;2.80;;;15.40;99.90;;;;;;5045600;28;20255;-35
2022/07/05 04:48:14;;;;;;;3.20;2.93;;;15.30;99.90;;;;;;5039172;28;20187;-35
2022/07/05 04:50:39;;;;;;;3.30;3.00;;;15.30;99.90;;;;;;5045435;28;20193;-35
2022/07/05 04:53:05;;;;;;;4.10;3.37;;;15.30;99.90;;;;;;5031451;28;20637;-35
2022/07/05 04:55:31;;;;;;;3.40;3.10;;;15.30;99.90;;;;;;5030896;28;20224;-35
2022/07/05 04:57:57;;;;;;;3.63;3.37;;;15.40;99.90;;;;;;5030887;28;20232;-35
2022/07/05 05:00:22;;;;;;;4.93;3.27;;;15.50;99.90;;;;;;5034938;28;20420;-35
2022/07/05 05:02:48;;;;;;;3.40;3.10;;;15.60;99.90;;;;;;5040187;28;20190;-35
2022/07/05 05:05:14;;;;;;;4.00;3.60;;;15.80;99.90;;;;;;5051181;28;20190;-35
2022/07/05 05:07:43;;;;;;;6.03;4.30;;;15.90;99.90;;;;;;5050289;28;20205;-35
2022/07/05 05:10:09;;;;;;;6.77;4.00;;;16.10;99.90;;;;;;5051115;28;20301;-35
2022/07/05 05:12:35;;;;;;;6.43;4.27;;;16.30;99.90;;;;;;5051033;28;20516;-35
2022/07/05 05:15:01;;;;;;;5.27;3.60;;;16.40;99.90;;;;;;5051316;28;20511;-35
2022/07/05 05:17:35;;;;;;;9.50;5.07;;;16.50;99.90;;;;;;5050381;28;20178;-35
2022/07/05 05:20:02;;;;;;;7.90;4.17;;;16.50;99.90;;;;;;5043297;28;20909;-35
2022/07/05 05:22:28;;;;;;;9.10;5.00;;;16.60;99.90;;;;;;5039497;28;20433;-35
2022/07/05 05:24:53;;;;;;;5.30;4.43;;;16.80;99.90;;;;;;5030853;28;20975;-35
2022/07/05 05:27:19;;;;;;;9.50;4.80;;;16.80;99.90;;;;;;5040281;28;20281;-35
2022/07/05 05:29:45;;;;;;;8.93;5.40;;;17.00;99.90;;;;;;5050741;28;20267;-35
2022/07/05 05:32:10;;;;;;;9.23;5.13;;;17.10;99.90;;;;;;5050728;28;20188;-35
2022/07/05 05:34:36;;;;;;;5.33;4.00;;;17.30;99.90;;;;;;5049714;28;20185;-35
2022/07/05 05:37:02;;;;;;;6.60;4.70;;;17.40;99.90;;;;;;5049546;28;20185;-35
2022/07/05 05:39:28;;;;;;;5.07;4.00;;;17.60;99.90;;;;;;5050601;28;20809;-35
2022/07/05 05:41:53;;;;;;;5.53;4.63;;;17.70;99.90;;;;;;5050326;28;20192;-35
2022/07/05 05:44:19;;;;;;;4.57;4.17;;;17.80;99.90;;;;;;5047343;28;20881;-35
2022/07/05 05:46:45;;;;;;;5.10;4.27;;;17.70;99.90;;;;;;5036897;28;20193;-35
2022/07/05 05:49:10;;;;;;;5.67;4.30;;;17.70;99.90;;;;;;5035851;28;20317;-35
2022/07/05 05:51:36;;;;;;;6.53;3.83;;;17.90;99.90;;;;;;5043214;28;20185;-35
2022/07/05 05:54:02;;;;;;;5.10;3.70;;;17.90;99.90;;;;;;5033911;28;20190;-35
2022/07/05 05:56:28;;;;;;;7.77;4.40;;;18.10;99.90;;;;;;5029072;28;20251;-35
2022/07/05 05:58:53;;;;;;;5.57;3.93;;;18.30;99.90;;;;;;5029610;28;20186;-36
2022/07/05 06:01:19;;;;;;;7.70;4.33;;;18.40;99.90;;;;;;5038938;28;20186;-35
2022/07/05 06:03:45;;;;;;;3.50;3.20;;;18.60;99.90;;;;;;5042624;28;20189;-35
2022/07/05 06:06:10;;;;;;;5.70;4.30;;;18.70;99.90;;;;;;5049126;28;20213;-35
2022/07/05 06:08:36;;;;;;;6.67;3.90;;;18.90;99.90;;;;;;5049235;28;20538;-35
2022/07/05 06:11:04;;;;;;;4.13;3.73;;;19.00;99.90;;;;;;5050143;28;20201;-35
2022/07/05 06:13:29;;;;;;;4.40;3.27;;;19.10;99.90;;;;;;5049968;28;20265;-36
2022/07/05 06:15:55;;;;;;;10.60;3.87;;;19.30;99.90;;;;;;5043984;28;20904;-36
2022/07/05 06:18:22;;;;;;;10.73;4.40;;;19.40;99.90;;;;;;5038086;28;20443;-35
2022/07/05 06:20:48;;;;;;;4.30;3.80;;;19.50;99.90;;;;;;5039080;28;20436;-35
2022/07/05 06:23:13;;;;;;;5.37;4.10;;;19.60;99.90;;;;;;5047734;28;20416;-35
2022/07/05 06:25:40;;;;;;;6.23;3.57;;;19.80;99.90;;;;;;5029905;28;20680;-35
2022/07/05 06:28:08;;;;;;;4.97;3.90;;;19.90;99.90;;;;;;5045848;28;20181;-35
2022/07/05 06:30:35;;;;;;;4.53;4.13;;;19.90;99.90;;;;;;5049831;28;20507;-35
2022/07/05 06:33:02;;;;;;;6.07;4.20;;;20.00;99.90;;;;;;5049609;28;20412;-35
2022/07/05 06:35:28;;;;;;;5.40;3.83;;;20.20;99.90;;;;;;5048533;28;20507;-36
2022/07/05 06:38:03;;;;;;;4.80;3.03;;;20.20;99.90;;;;;;5049254;28;20770;-36
2022/07/05 06:40:32;;;;;;;3.23;2.20;;;20.30;99.90;;;;;;5031702;28;20417;-35
2022/07/05 06:42:59;;;;;;;3.13;2.80;;;20.40;99.90;;;;;;5038423;28;20429;-35
2022/07/05 06:45:25;;;;;;;4.30;2.90;;;20.40;99.90;;;;;;5045667;28;20806;-36
2022/07/05 06:48:02;;;;;;;2.70;2.17;;;20.50;99.50;;;;;;5046996;28;20416;-36
2022/07/05 06:50:35;;;;;;;4.03;2.50;;;20.70;99.70;;;;;;5049530;28;20829;-36
2022/07/05 06:53:02;;;;;;;3.13;2.33;;;20.80;99.50;;;;;;5049019;28;20967;-36
2022/07/05 06:55:28;;;;;;;6.60;2.70;;;20.90;99.80;;;;;;5049587;28;21044;-35
2022/07/05 06:57:58;;;;;;;2.93;2.63;;;20.90;99.90;;;;;;5048828;28;20416;-35
2022/07/05 07:00:25;;;;;;;4.17;2.23;;;20.90;99.50;;;;;;5048005;28;20656;-35
2022/07/05 07:02:50;;;;;;;2.33;2.13;;;20.90;99.10;;;;;;5029807;28;20451;-35
2022/07/05 07:05:16;;;;;;;4.83;2.43;;;21.00;99.50;;;;;;5029661;28;20425;-35
2022/07/05 07:10:26;;;;;;;2.93;2.60;;;20.90;99.10;;;;;;5029560;28;20210;-35
2022/07/05 07:12:52;;;;;;;4.30;2.80;;;21.00;99.10;;;;;;5029233;28;20417;-35
2022/07/05 07:15:18;;;;;;;3.13;2.47;;;21.10;99.30;;;;;;5029546;28;20567;-35
2022/07/05 07:17:44;;;;;;;3.97;2.67;;;21.10;99.00;;;;;;5029795;28;20197;-35
2022/07/05 07:20:10;;;;;;;5.73;2.37;;;21.20;99.00;;;;;;5033203;28;20197;-35
2022/07/05 07:22:36;;;;;;;7.30;2.57;;;21.30;99.00;;;;;;5039834;28;20190;-35
2022/07/05 07:25:01;;;;;;;3.33;2.63;;;21.30;98.00;;;;;;5033118;28;20429;-35
2022/07/05 07:27:27;;;;;;;3.70;2.80;;;21.30;97.70;;;;;;5043567;28;20296;-35
2022/07/05 07:29:53;;;;;;;5.33;2.40;;;21.30;97.80;;;;;;5052893;28;20240;-35
2022/07/05 07:32:18;;;;;;;3.20;2.90;;;21.40;97.90;;;;;;5051763;28;20237;-35
2022/07/05 07:34:44;;;;;;;4.63;3.03;;;21.40;97.80;;;;;;5051344;28;20273;-35
2022/07/05 07:37:13;;;;;;;3.30;2.10;;;21.40;96.60;;;;;;5052207;28;20193;-35
2022/07/05 07:39:39;;;;;;;6.87;2.87;;;21.50;96.70;;;;;;5052692;28;20427;-35
2022/07/05 07:42:06;;;;;;;2.60;2.37;;;21.50;97.10;;;;;;5052585;28;20506;-35
2022/07/05 07:44:31;;;;;;;4.73;2.13;;;21.50;96.90;;;;;;5052703;28;20522;-35
2022/07/05 07:46:57;;;;;;;2.17;2.00;;;21.60;97.10;;;;;;5052060;28;20892;-35
2022/07/05 07:49:23;;;;;;;2.73;2.00;;;21.70;97.60;;;;;;5052638;28;20202;-36
2022/07/05 07:51:50;;;;;;;3.97;2.23;;;21.80;97.50;;;;;;5052704;28;20182;-35
2022/07/05 07:54:15;;;;;;;2.20;1.90;;;21.80;95.80;;;;;;5052481;28;20213;-35
2022/07/05 07:56:42;;;;;;;3.53;2.13;;;21.90;96.30;;;;;;5051749;28;21276;-35
2022/07/05 07:59:08;;;;;;;3.97;2.40;;;21.90;96.60;;;;;;5052589;28;20522;-35
2022/07/05 08:01:34;;;;;;;3.23;2.10;;;21.90;96.40;;;;;;5040938;28;20430;-35
2022/07/05 08:03:59;;;;;;;2.83;2.07;;;21.90;97.00;;;;;;5032374;28;20190;-35
2022/07/05 08:06:25;;;;;;;2.57;2.37;;;21.90;96.40;;;;;;5032263;28;20221;-35
2022/07/05 08:08:51;;;;;;;3.10;2.00;;;21.90;97.00;;;;;;5031801;28;20215;-35
2022/07/05 08:11:16;;;;;;;2.33;2.13;;;21.80;96.70;;;;;;5032223;28;20654;-35
2022/07/05 08:13:42;;;;;;;5.47;2.50;;;21.70;96.80;;;;;;5031076;28;20256;-36
2022/07/05 08:16:10;;;;;;;4.57;2.23;;;21.60;96.90;;;;;;5032273;28;20221;-36
2022/07/05 08:21:35;;;;;;;2.30;2.00;;;21.40;96.70;;;;;;5035191;28;20528;-35
2022/07/05 08:24:06;;;;;;;3.67;2.80;;;21.40;96.90;;;;;;5049635;28;20447;-35
2022/07/05 08:26:33;;;;;;;3.60;2.63;;;21.50;96.90;;;;;;5046909;28;20468;-35
2022/07/05 08:29:01;;;;;;;2.87;2.17;;;21.60;96.90;;;;;;5046231;28;20464;-35
2022/07/05 08:31:28;;;;;;;2.67;2.20;;;21.70;96.30;;;;;;5035531;28;20439;-35
2022/07/05 08:33:54;;;;;;;2.23;2.00;;;21.70;96.30;;;;;;5040817;28;20412;-36
2022/07/05 08:36:19;;;;;;;5.37;2.57;;;21.80;96.40;;;;;;5051066;28;20933;-35
2022/07/05 08:38:45;;;;;;;3.63;3.17;;;21.80;96.60;;;;;;5050550;28;20436;-35
2022/07/05 08:41:11;;;;;;;4.00;3.30;;;21.90;96.50;;;;;;5050704;28;20218;-36
2022/07/05 08:43:40;;;;;;;3.37;2.30;;;22.00;96.60;;;;;;5051240;28;20182;-36
2022/07/05 08:46:10;;;;;;;4.00;2.50;;;22.10;96.50;;;;;;5051587;28;20481;-36
2022/07/05 08:48:43;;;;;;;4.93;3.20;;;22.20;96.50;;;;;;5050787;28;20463;-36
2022/07/05 08:51:22;;;;;;;4.23;3.33;;;22.20;96.20;;;;;;5051469;28;20432;-36
2022/07/05 08:53:52;;;;;;;3.73;2.90;;;22.10;95.50;;;;;;5051628;28;20906;-35
2022/07/05 08:56:19;;;;;;;5.90;3.13;;;22.30;95.90;;;;;;5051502;28;20463;-35
2022/07/05 08:58:45;;;;;;;3.37;3.07;;;22.40;95.80;;;;;;5050665;28;20465;-36
2022/07/05 09:01:12;;;;;;;4.23;3.60;;;22.50;95.00;;;;;;5041607;28;20456;-36
2022/07/05 09:03:51;;;;;;;3.73;3.30;;;22.60;95.20;;;;;;5031301;28;20417;-36
2022/07/05 09:06:19;;;;;;;3.23;2.90;;;22.50;94.80;;;;;;5031375;28;20806;-36
2022/07/05 09:08:45;;;;;;;3.33;2.70;;;22.30;95.50;;;;;;5030481;28;20544;-35
2022/07/05 09:11:16;;;;;;;4.67;3.30;;;22.20;95.50;;;;;;5031217;28;20432;-36
2022/07/05 09:13:49;;;;;;;3.27;2.60;;;22.00;95.30;;;;;;5030875;28;20471;-36
2022/07/05 09:16:15;;;;;;;3.93;3.13;;;21.90;96.00;;;;;;5031023;28;20973;-35
2022/07/05 09:18:46;;;;;;;3.30;2.70;;;21.80;96.30;;;;;;5030461;28;20519;-36
2022/07/05 09:21:18;;;;;;;3.10;2.43;;;21.70;95.70;;;;;;5035518;28;20822;-35
2022/07/05 09:23:53;;;;;;;3.20;2.53;;;21.80;96.80;;;;;;5031070;28;20449;-36
2022/07/05 09:26:18;;;;;;;3.30;2.63;;;22.00;97.10;;;;;;5032462;28;20417;-35
2022/07/05 09:28:55;;;;;;;4.63;2.60;;;22.10;96.90;;;;;;5050112;28;20475;-36
2022/07/05 09:31:49;;;;;;;5.10;3.70;;;22.30;95.90;;;;;;5050782;28;20189;-35
2022/07/05 09:34:16;;;;;;;6.23;3.43;;;22.40;95.10;;;;;;5048823;28;20424;-36
2022/07/05 09:37:02;;;;;;;3.70;3.30;;;22.50;95.50;;;;;;5049669;28;20432;-36
2022/07/05 09:39:37;;;;;;;3.53;3.23;;;22.60;96.60;;;;;;5050739;28;20512;-36
2022/07/05 09:42:12;;;;;;;4.20;3.13;;;22.90;95.80;;;;;;5050441;28;20459;-36
2022/07/05 09:44:39;;;;;;;3.93;3.00;;;23.10;95.10;;;;;;5050521;28;20891;-36
2022/07/05 09:47:12;;;;;;;7.20;2.77;;;23.40;95.20;;;;;;5049509;28;20428;-36
2022/07/05 09:49:47;;;;;;;3.47;2.67;;;23.50;94.70;;;;;;5050364;28;20471;-35
2022/07/05 09:52:33;;;;;;;4.40;2.97;;;23.70;93.20;;;;;;5050130;28;20419;-36
2022/07/05 09:55:07;;;;;;;6.10;2.40;;;23.70;93.20;;;;;;5050373;28;20431;-36
2022/07/05 09:57:36;;;;;;;4.93;3.10;;;23.50;92.60;;;;;;5049295;28;20415;-36
2022/07/05 10:00:21;;;;;;;4.37;3.07;;;23.30;92.50;;;;;;5050229;28;20423;-36
2022/07/05 10:03:00;;;;;;;3.10;2.70;;;23.20;92.40;;;;;;5030248;28;20471;-36
2022/07/05 10:05:27;;;;;;;2.30;2.10;;;23.00;90.90;;;;;;5030256;28;20429;-35
2022/07/05 10:07:58;;;;;;;2.37;2.13;;;22.80;90.80;;;;;;5028192;28;20921;-35
2022/07/05 10:10:30;;;;;;;2.60;2.20;;;22.80;92.30;;;;;;5030262;28;20492;-35
2022/07/05 10:12:58;;;;;;;2.97;2.47;;;22.90;91.40;;;;;;5030122;28;20421;-35
2022/07/05 10:15:27;;;;;;;3.03;2.50;;;22.80;91.20;;;;;;5030262;28;20425;-36
2022/07/05 10:18:08;;;;;;;2.63;2.10;;;22.70;90.90;;;;;;5029473;28;20453;-35
2022/07/05 10:20:37;;;;;;;2.63;2.10;;;22.60;90.60;;;;;;5037525;28;20450;-36
2022/07/05 10:23:07;;;;;;;2.20;2.00;;;22.70;90.10;;;;;;5038612;28;20532;-35
2022/07/05 10:25:36;;;;;;;3.87;2.30;;;22.80;87.20;;;;;;5030163;28;20425;-36
2022/07/05 10:28:03;;;;;;;3.83;2.17;;;22.90;87.90;;;;;;5028020;28;20994;-35
2022/07/05 10:30:29;;;;;;;2.43;2.13;;;23.10;91.20;;;;;;5028807;28;20460;-36
2022/07/05 10:32:56;;;;;;;3.20;2.50;;;23.20;90.90;;;;;;5029669;28;20425;-35
2022/07/05 10:35:22;;;;;;;3.20;2.27;;;23.00;88.60;;;;;;5028358;28;20425;-36
2022/07/05 10:37:48;;;;;;;3.80;2.17;;;22.80;89.70;;;;;;5029146;28;21011;-36
2022/07/05 10:40:15;;;;;;;3.10;1.80;;;22.70;90.90;;;;;;5029839;28;20429;-36
2022/07/05 10:43:01;;;;;;;2.07;1.87;;;22.60;90.10;;;;;;5029834;28;20431;-35
2022/07/05 10:45:26;;;;;;;3.00;2.30;;;22.60;91.20;;;;;;5028401;28;20452;-36
2022/07/05 10:48:16;;;;;;;3.37;2.40;;;22.60;90.50;;;;;;5029300;28;20452;-35
2022/07/05 10:50:50;;;;;;;2.97;2.60;;;22.80;90.70;;;;;;5029466;28;20669;-35
2022/07/05 10:53:19;;;;;;;1.63;1.47;;;22.90;90.30;;;;;;5031557;28;20416;-35
2022/07/05 10:55:47;;;;;;;2.30;2.10;;;23.10;90.10;;;;;;5032240;28;20757;-37
2022/07/05 10:58:16;;;;;;;4.93;2.10;;;23.30;90.90;;;;;;5031594;28;20419;-35
2022/07/05 11:00:43;;;;;;;3.37;2.20;;;23.40;90.00;;;;;;5039163;28;20807;-36
2022/07/05 11:03:36;;;;;;;4.47;1.80;;;23.40;89.50;;;;;;5033710;28;20417;-35
2022/07/05 11:06:04;;;;;;;2.57;1.80;;;23.40;84.70;;;;;;5040498;28;20493;-35
2022/07/05 11:08:33;;;;;;;1.73;1.50;;;23.30;84.00;;;;;;5052668;28;20428;-36
2022/07/05 11:11:13;;;;;;;2.80;1.87;;;23.30;86.80;;;;;;5053377;28;20427;-35
2022/07/05 11:13:47;;;;;;;1.60;1.50;;;23.40;87.00;;;;;;5053426;28;20420;-36
2022/07/05 11:16:26;;;;;;;2.10;1.90;;;23.40;85.80;;;;;;5053121;28;20420;-36
2022/07/05 11:19:04;;;;;;;3.57;1.73;;;23.40;87.70;;;;;;5052638;28;20427;-36
2022/07/05 11:21:30;;;;;;;2.53;1.50;;;23.50;87.90;;;;;;5053370;28;20891;-36
2022/07/05 11:24:20;;;;;;;5.67;2.03;;;23.50;87.50;;;;;;5033394;28;20413;-35
2022/07/05 11:26:48;;;;;;;2.40;1.60;;;23.60;89.40;;;;;;5032374;28;20413;-36
2022/07/05 11:29:43;;;;;;;3.27;2.20;;;23.70;86.80;;;;;;5045474;28;20460;-36
2022/07/05 11:32:15;;;;;;;2.10;1.90;;;23.60;85.20;;;;;;5052796;28;20421;-36
2022/07/05 11:34:43;;;;;;;1.90;1.80;;;23.50;84.70;;;;;;5051668;28;20412;-35
2022/07/05 11:37:28;;;;;;;2.43;1.97;;;23.40;85.00;;;;;;5052152;28;20448;-36
2022/07/05 11:40:20;;;;;;;1.97;1.83;;;23.50;85.20;;;;;;5052955;28;20428;-36
2022/07/05 11:42:47;;;;;;;2.20;1.87;;;23.60;81.30;;;;;;5052247;28;20430;-36
2022/07/05 11:45:13;;;;;;;2.93;1.90;;;23.70;86.70;;;;;;5052775;28;20482;-35
2022/07/05 11:47:40;;;;;;;2.30;1.90;;;23.80;81.30;;;;;;5051870;28;20436;-35
2022/07/05 11:50:06;;;;;;;2.50;1.70;;;23.60;80.10;;;;;;5052494;28;20542;-35
2022/07/05 11:52:33;;;;;;;2.33;1.93;;;23.60;82.60;;;;;;5052462;28;20416;-36
2022/07/05 11:55:01;;;;;;;3.93;2.07;;;23.50;83.30;;;;;;5052557;28;20420;-35
2022/07/05 11:57:27;;;;;;;1.97;1.77;;;23.50;87.50;;;;;;5051849;28;20421;-35
2022/07/05 11:59:53;;;;;;;2.30;2.10;;;23.60;87.10;;;;;;5052487;28;20419;-35
2022/07/05 12:02:19;;;;;;;2.83;1.80;;;23.50;84.90;;;;;;5033880;28;20190;-36
2022/07/05 12:04:53;;;;;;;2.20;1.70;;;23.50;86.30;;;;;;5031239;28;20453;-36
2022/07/05 12:07:33;;;;;;;2.80;2.50;;;23.50;86.40;;;;;;5031730;28;20444;-36
2022/07/05 12:12:47;;;;;;;2.50;2.17;;;23.70;84.60;;;;;;5032145;28;20432;-36
2022/07/05 12:15:17;;;;;;;4.80;2.43;;;23.70;84.70;;;;;;5032077;28;20432;-36
2022/07/05 12:17:50;;;;;;;4.13;2.33;;;24.00;90.30;;;;;;5031762;28;20425;-36
2022/07/05 12:20:25;;;;;;;3.00;2.40;;;24.20;90.20;;;;;;5032132;28;20468;-36
2022/07/05 12:22:52;;;;;;;4.47;2.50;;;24.30;87.30;;;;;;5034711;28;20511;-35
2022/07/05 12:25:21;;;;;;;2.07;1.87;;;24.40;87.90;;;;;;5031826;28;20421;-36
2022/07/05 12:27:48;;;;;;;2.77;2.00;;;24.60;89.10;;;;;;5045093;28;20448;-36
2022/07/05 12:30:15;;;;;;;2.40;1.77;;;24.70;84.70;;;;;;5052070;28;20468;-35
2022/07/05 12:32:54;;;;;;;4.17;2.40;;;24.70;82.80;;;;;;5051968;28;21185;-35
2022/07/05 12:35:31;;;;;;;2.03;1.80;;;24.70;82.70;;;;;;5050524;28;20426;-35
2022/07/05 12:38:03;;;;;;;2.50;1.97;;;24.70;83.70;;;;;;5050888;28;20528;-35
2022/07/05 12:40:29;;;;;;;2.80;2.10;;;24.50;80.50;;;;;;5051715;28;21064;-36
2022/07/05 12:43:04;;;;;;;2.80;2.07;;;24.40;81.80;;;;;;5051582;28;20432;-36
2022/07/05 12:45:31;;;;;;;4.63;1.77;;;24.40;82.60;;;;;;5051790;28;20466;-35
2022/07/05 12:48:03;;;;;;;2.50;1.73;;;24.30;83.20;;;;;;5050859;28;20478;-36
2022/07/05 12:50:47;;;;;;;2.50;2.13;;;24.10;80.80;;;;;;5051424;28;20464;-36
2022/07/05 12:58:57;;;;;;;2.37;1.80;;;23.70;81.00;;;;;;5050740;28;20426;-36
2022/07/05 13:01:27;;;;;;;2.60;1.80;;;24.00;84.30;;;;;;5041837;28;20452;-36
2022/07/05 13:04:03;;;;;;;2.73;1.93;;;24.10;83.80;;;;;;5031460;28;20436;-36
2022/07/05 13:06:50;;;;;;;2.70;1.90;;;24.20;82.80;;;;;;5031274;28;20514;-35
2022/07/05 13:09:37;;;;;;;2.13;1.73;;;24.20;79.70;;;;;;5039094;28;20546;-36